createdAt,value
2018-07-10T00:00:30.089Z,2.80
2018-07-10T00:02:28.523Z,2.80
2018-07-10T00:03:27.519Z,2.80
2018-07-10T00:05:23.976Z,3.40
2018-07-10T00:06:23.475Z,2.50
2018-07-10T00:08:19.438Z,2.50
2018-07-10T00:09:19.425Z,2.40
2018-07-10T00:11:17.397Z,2.70
2018-07-10T00:12:17.406Z,2.80
2018-07-10T00:14:15.330Z,2.50
2018-07-10T00:15:15.369Z,2.90
2018-07-10T00:17:11.782Z,2.70
2018-07-10T00:18:11.297Z,2.90
2018-07-10T00:20:07.718Z,2.90
2018-07-10T00:21:07.205Z,2.60
2018-07-10T00:23:05.679Z,2.70
2018-07-10T00:24:05.331Z,2.80
2018-07-10T00:26:01.905Z,2.80
2018-07-10T00:27:01.265Z,2.40
2018-07-10T00:28:58.739Z,2.80
2018-07-10T00:29:57.259Z,2.70
2018-07-10T00:31:57.202Z,2.90
2018-07-10T00:32:55.339Z,3.20
2018-07-10T00:34:52.289Z,3.70
2018-07-10T00:35:51.299Z,2.70
2018-07-10T00:37:49.266Z,2.50
2018-07-10T00:38:49.249Z,3.40
2018-07-10T00:40:45.201Z,2.80
2018-07-10T00:41:45.234Z,2.80
2018-07-10T00:43:43.158Z,2.50
2018-07-10T00:44:41.166Z,2.60
2018-07-10T00:46:39.628Z,2.90
2018-07-10T00:47:39.082Z,2.60
2018-07-10T00:49:35.012Z,3.10
2018-07-10T00:50:35.975Z,3.00
2018-07-10T00:52:31.989Z,2.80
2018-07-10T00:53:31.004Z,2.50
2018-07-10T00:55:28.955Z,2.80
2018-07-10T00:56:28.957Z,3.20
2018-07-10T00:58:24.906Z,2.80
2018-07-10T00:59:24.906Z,2.90
2018-07-10T01:01:22.836Z,2.70
2018-07-10T01:02:22.841Z,2.60
2018-07-10T01:04:21.801Z,2.40
2018-07-10T01:05:20.985Z,2.80
2018-07-10T01:07:17.001Z,3.30
2018-07-10T01:08:16.928Z,3.10
2018-07-10T01:10:14.881Z,3.50
2018-07-10T01:11:14.860Z,2.90
2018-07-10T01:13:13.012Z,2.80
2018-07-10T01:14:13.011Z,2.60
2018-07-10T01:16:11.973Z,2.60
2018-07-10T01:17:11.131Z,2.50
2018-07-10T01:19:07.110Z,2.80
2018-07-10T01:20:07.555Z,2.60
2018-07-10T01:22:06.502Z,2.60
2018-07-10T01:23:04.987Z,2.50
2018-07-10T01:25:03.983Z,2.30
2018-07-10T01:26:03.124Z,2.30
2018-07-10T01:28:01.103Z,2.50
2018-07-10T01:29:01.089Z,3.00
2018-07-10T01:30:57.000Z,2.60
2018-07-10T01:31:57.018Z,3.10
2018-07-10T01:33:55.509Z,2.70
2018-07-10T01:34:55.977Z,2.40
2018-07-10T01:36:51.132Z,2.50
2018-07-10T01:37:51.656Z,2.90
2018-07-10T01:39:49.598Z,2.60
2018-07-10T01:40:49.227Z,2.30
2018-07-10T01:42:45.158Z,2.30
2018-07-10T01:43:45.172Z,2.30
2018-07-10T01:45:43.133Z,2.20
2018-07-10T01:46:43.109Z,2.40
2018-07-10T01:48:41.569Z,2.30
2018-07-10T01:49:41.576Z,2.50
2018-07-10T01:51:39.171Z,2.20
2018-07-10T01:52:39.184Z,2.20
2018-07-10T01:54:35.131Z,2.80
2018-07-10T01:55:35.154Z,2.60
2018-07-10T01:57:31.099Z,2.70
2018-07-10T01:58:31.077Z,2.90
2018-07-10T02:00:27.046Z,2.40
2018-07-10T02:01:27.020Z,2.40
2018-07-10T02:03:25.497Z,2.50
2018-07-10T02:04:25.005Z,2.50
2018-07-10T02:06:22.977Z,2.50
2018-07-10T02:07:22.914Z,2.30
2018-07-10T02:09:21.372Z,2.40
2018-07-10T02:10:20.871Z,2.50
2018-07-10T02:12:18.953Z,2.50
2018-07-10T02:13:18.953Z,2.60
2018-07-10T02:15:15.915Z,2.60
2018-07-10T02:16:14.901Z,2.40
2018-07-10T02:18:12.835Z,2.50
2018-07-10T02:19:12.842Z,2.50
2018-07-10T02:21:11.300Z,3.10
2018-07-10T02:22:10.790Z,3.00
2018-07-10T02:24:08.747Z,2.80
2018-07-10T02:25:08.751Z,2.60
2018-07-10T02:27:06.728Z,2.80
2018-07-10T02:28:07.216Z,2.60
2018-07-10T02:30:05.195Z,2.90
2018-07-10T02:31:04.655Z,2.80
2018-07-10T02:33:01.617Z,2.60
2018-07-10T02:34:01.634Z,2.70
2018-07-10T02:35:58.556Z,2.60
2018-07-10T02:36:57.568Z,2.40
2018-07-10T02:38:55.501Z,2.60
2018-07-10T02:39:55.501Z,3.10
2018-07-10T02:41:54.523Z,2.70
2018-07-10T02:42:53.993Z,2.80
2018-07-10T02:44:51.938Z,3.10
2018-07-10T02:45:51.413Z,2.70
2018-07-10T02:47:50.357Z,2.60
2018-07-10T02:48:49.523Z,2.50
2018-07-10T02:50:47.508Z,2.70
2018-07-10T02:51:47.499Z,2.60
2018-07-10T02:53:45.929Z,2.80
2018-07-10T02:54:45.419Z,2.30
2018-07-10T02:56:44.386Z,2.30
2018-07-10T02:57:43.527Z,2.40
2018-07-10T02:59:42.910Z,2.30
2018-07-10T03:00:41.471Z,2.70
2018-07-10T03:02:39.939Z,2.50
2018-07-10T03:03:39.575Z,2.50
2018-07-10T03:05:35.501Z,2.50
2018-07-10T03:06:35.516Z,2.70
2018-07-10T03:08:34.493Z,2.50
2018-07-10T03:09:33.630Z,2.50
2018-07-10T03:11:32.099Z,2.40
2018-07-10T03:12:31.765Z,2.50
2018-07-10T03:14:28.229Z,2.20
2018-07-10T03:15:27.719Z,2.20
2018-07-10T03:17:23.679Z,2.70
2018-07-10T03:18:23.658Z,2.90
2018-07-10T03:20:22.146Z,2.30
2018-07-10T03:21:21.777Z,2.20
2018-07-10T03:23:19.803Z,2.50
2018-07-10T03:24:19.744Z,2.30
2018-07-10T03:26:17.823Z,2.10
2018-07-10T03:27:17.819Z,2.20
2018-07-10T03:29:15.767Z,2.10
2018-07-10T03:30:16.272Z,2.40
2018-07-10T03:32:14.239Z,2.20
2018-07-10T03:33:14.734Z,2.10
2018-07-10T03:35:11.853Z,2.10
2018-07-10T03:36:11.875Z,2.10
2018-07-10T03:38:10.287Z,2.10
2018-07-10T03:39:09.779Z,2.30
2018-07-10T03:41:07.750Z,2.10
2018-07-10T03:42:07.768Z,2.00
2018-07-10T03:44:05.758Z,2.10
2018-07-10T03:45:05.690Z,2.20
2018-07-10T03:47:03.692Z,2.00
2018-07-10T03:48:03.648Z,2.10
2018-07-10T03:50:02.112Z,2.20
2018-07-10T03:51:01.589Z,2.10
2018-07-10T03:52:57.575Z,2.10
2018-07-10T03:53:57.536Z,2.00
2018-07-10T03:55:56.495Z,2.00
2018-07-10T03:56:55.650Z,2.20
2018-07-10T03:58:52.594Z,2.00
2018-07-10T03:59:51.596Z,2.20
2018-07-10T04:01:50.488Z,2.70
2018-07-10T04:02:49.552Z,2.70
2018-07-10T04:04:47.526Z,2.20
2018-07-10T04:05:47.528Z,2.10
2018-07-10T04:07:45.448Z,2.70
2018-07-10T04:08:45.461Z,2.20
2018-07-10T04:10:41.943Z,2.40
2018-07-10T04:11:42.960Z,2.40
2018-07-10T04:13:37.873Z,2.20
2018-07-10T04:14:38.357Z,2.10
2018-07-10T04:16:38.384Z,2.00
2018-07-10T04:17:37.853Z,2.30
2018-07-10T04:19:36.374Z,2.00
2018-07-10T04:20:35.789Z,2.00
2018-07-10T04:22:33.893Z,2.00
2018-07-10T04:23:35.300Z,1.90
2018-07-10T04:25:31.685Z,1.90
2018-07-10T04:26:31.702Z,2.50
2018-07-10T04:28:33.203Z,2.20
2018-07-10T04:29:33.757Z,2.20
2018-07-10T04:31:29.027Z,3.10
2018-07-10T04:32:28.124Z,2.00
2018-07-10T04:34:26.583Z,2.30
2018-07-10T04:35:26.992Z,2.10
2018-07-10T04:37:24.196Z,2.20
2018-07-10T04:38:25.056Z,2.20
2018-07-10T04:40:22.286Z,2.80
2018-07-10T04:41:23.165Z,2.50
2018-07-10T04:43:20.268Z,1.90
2018-07-10T04:44:20.258Z,2.80
2018-07-10T04:46:16.718Z,2.50
2018-07-10T04:47:16.706Z,2.10
2018-07-10T04:49:15.187Z,2.10
2018-07-10T04:50:14.291Z,2.10
2018-07-10T04:52:12.792Z,2.20
2018-07-10T04:53:12.266Z,2.30
2018-07-10T04:55:10.699Z,2.20
2018-07-10T04:56:11.681Z,2.10
2018-07-10T04:58:08.115Z,2.00
2018-07-10T04:59:08.124Z,2.40
2018-07-10T05:01:06.229Z,2.10
2018-07-10T05:02:07.102Z,2.20
2018-07-10T05:04:04.373Z,2.20
2018-07-10T05:05:05.185Z,2.10
2018-07-10T05:07:02.855Z,2.00
2018-07-10T05:08:02.316Z,2.10
2018-07-10T05:10:00.780Z,2.30
2018-07-10T05:11:00.771Z,2.00
2018-07-10T05:12:58.414Z,2.50
2018-07-10T05:13:58.361Z,2.40
2018-07-10T05:15:56.324Z,2.40
2018-07-10T05:16:56.323Z,2.40
2018-07-10T05:18:52.298Z,2.60
2018-07-10T05:19:52.310Z,2.70
2018-07-10T05:21:54.177Z,2.10
2018-07-10T05:22:50.245Z,2.00
2018-07-10T05:24:46.202Z,2.50
2018-07-10T05:25:46.191Z,2.40
2018-07-10T05:27:44.128Z,2.00
2018-07-10T05:28:44.704Z,2.50
2018-07-10T05:30:42.256Z,2.20
2018-07-10T05:31:42.238Z,2.00
2018-07-10T05:33:38.699Z,2.20
2018-07-10T05:34:38.187Z,2.10
2018-07-10T05:36:36.294Z,2.40
2018-07-10T05:37:36.281Z,2.10
2018-07-10T05:39:34.251Z,2.10
2018-07-10T05:40:34.848Z,2.30
2018-07-10T05:42:33.206Z,2.30
2018-07-10T05:43:32.695Z,2.10
2018-07-10T05:45:30.629Z,2.10
2018-07-10T05:46:32.719Z,2.10
2018-07-10T05:48:28.050Z,2.30
2018-07-10T05:49:28.060Z,2.20
2018-07-10T05:51:24.004Z,2.40
2018-07-10T05:52:24.063Z,2.40
2018-07-10T05:54:21.499Z,2.40
2018-07-10T05:55:19.951Z,2.10
2018-07-10T05:57:17.200Z,2.10
2018-07-10T05:58:16.917Z,2.00
2018-07-10T06:00:12.849Z,2.50
2018-07-10T06:01:12.867Z,2.00
2018-07-10T06:03:08.817Z,2.30
2018-07-10T06:04:08.827Z,2.20
2018-07-10T06:06:06.270Z,2.40
2018-07-10T06:07:04.755Z,2.30
2018-07-10T06:09:01.693Z,2.30
2018-07-10T06:10:01.694Z,2.40
2018-07-10T06:11:56.701Z,2.10
2018-07-10T06:12:56.686Z,1.80
2018-07-10T06:14:53.146Z,2.20
2018-07-10T06:15:54.132Z,2.10
2018-07-10T06:17:51.652Z,2.70
2018-07-10T06:18:50.760Z,2.20
2018-07-10T06:20:47.223Z,2.00
2018-07-10T06:21:46.709Z,2.20
2018-07-10T06:23:44.861Z,2.10
2018-07-10T06:24:44.839Z,2.10
2018-07-10T06:26:43.290Z,2.40
2018-07-10T06:27:42.769Z,2.20
2018-07-10T06:29:38.725Z,2.20
2018-07-10T06:30:39.236Z,2.20
2018-07-10T06:32:37.683Z,2.20
2018-07-10T06:34:52.793Z,2.20
2018-07-10T06:35:53.312Z,1.90
2018-07-10T06:37:53.294Z,1.90
2018-07-10T06:38:53.770Z,2.20
2018-07-10T06:40:51.720Z,2.20
2018-07-10T06:41:52.424Z,2.10
2018-07-10T06:43:49.337Z,2.00
2018-07-10T06:44:49.322Z,2.00
2018-07-10T06:46:47.287Z,2.50
2018-07-10T06:47:47.253Z,2.40
2018-07-10T06:49:50.209Z,2.00
2018-07-10T06:50:47.706Z,2.30
2018-07-10T06:52:46.743Z,2.40
2018-07-10T06:53:45.655Z,2.20
2018-07-10T06:55:45.141Z,2.20
2018-07-10T06:56:44.660Z,2.50
2018-07-10T06:58:42.590Z,2.10
2018-07-10T06:59:42.592Z,2.80
2018-07-10T07:01:43.056Z,2.10
2018-07-10T07:02:43.040Z,2.20
2018-07-10T07:04:41.506Z,2.10
2018-07-10T07:05:40.983Z,2.40
2018-07-10T07:07:37.478Z,2.20
2018-07-10T07:08:36.940Z,2.20
2018-07-10T07:10:33.398Z,2.30
2018-07-10T07:11:33.195Z,2.10
2018-07-10T07:13:29.774Z,2.60
2018-07-10T07:14:28.857Z,2.40
2018-07-10T07:16:26.746Z,2.40
2018-07-10T07:17:24.791Z,2.20
2018-07-10T07:19:26.184Z,2.30
2018-07-10T07:20:22.908Z,2.70
2018-07-10T07:22:19.799Z,2.20
2018-07-10T07:23:19.814Z,2.20
2018-07-10T07:25:21.760Z,2.00
2018-07-10T07:26:20.769Z,1.90
2018-07-10T07:28:19.226Z,2.00
2018-07-10T07:29:17.369Z,1.90
2018-07-10T07:31:17.679Z,2.10
2018-07-10T07:32:17.687Z,2.10
2018-07-10T07:34:13.182Z,2.00
2018-07-10T07:35:13.179Z,1.90
2018-07-10T07:37:11.663Z,2.10
2018-07-10T07:38:11.137Z,2.10
2018-07-10T07:40:10.083Z,2.20
2018-07-10T07:41:09.244Z,2.40
2018-07-10T07:43:10.241Z,1.80
2018-07-10T07:44:09.999Z,1.90
2018-07-10T07:46:08.201Z,2.90
2018-07-10T07:47:07.832Z,2.60
2018-07-10T07:49:03.825Z,2.40
2018-07-10T07:50:03.872Z,2.30
2018-07-10T07:52:00.296Z,1.80
2018-07-10T07:52:59.867Z,1.80
2018-07-10T07:54:57.763Z,2.50
2018-07-10T07:55:57.714Z,2.20
2018-07-10T07:57:53.672Z,2.10
2018-07-10T07:58:54.165Z,2.00
2018-07-10T08:00:49.620Z,2.20
2018-07-10T08:01:49.607Z,2.60
2018-07-10T08:03:47.577Z,2.00
2018-07-10T08:04:47.572Z,1.70
2018-07-10T08:06:48.046Z,2.40
2018-07-10T08:07:48.016Z,2.00
2018-07-10T08:09:45.980Z,2.30
2018-07-10T08:10:45.974Z,2.40
2018-07-10T08:12:44.497Z,2.30
2018-07-10T08:13:44.129Z,2.20
2018-07-10T08:15:41.009Z,2.10
2018-07-10T08:16:40.150Z,2.10
2018-07-10T08:18:36.066Z,2.50
2018-07-10T08:19:36.026Z,2.30
2018-07-10T08:21:36.510Z,2.10
2018-07-10T08:22:36.495Z,1.90
2018-07-10T08:24:34.494Z,2.30
2018-07-10T08:25:34.481Z,2.10
2018-07-10T08:27:35.416Z,3.40
2018-07-10T08:28:34.892Z,2.00
2018-07-10T08:30:33.083Z,2.50
2018-07-10T08:31:33.043Z,2.30
2018-07-10T08:33:31.061Z,2.30
2018-07-10T08:34:30.981Z,2.30
2018-07-10T08:36:31.960Z,2.30
2018-07-10T08:37:31.462Z,2.40
2018-07-10T08:39:34.818Z,2.20
2018-07-10T08:40:32.943Z,2.10
2018-07-10T08:42:32.893Z,2.10
2018-07-10T08:43:33.363Z,2.30
2018-07-10T08:45:32.906Z,2.70
2018-07-10T08:46:32.908Z,2.30
2018-07-10T08:48:33.556Z,2.30
2018-07-10T08:49:33.314Z,2.30
2018-07-10T08:51:32.802Z,2.50
2018-07-10T08:52:31.361Z,2.60
2018-07-10T08:54:30.772Z,2.50
2018-07-10T08:55:30.232Z,2.70
2018-07-10T08:57:29.856Z,2.70
2018-07-10T08:58:30.788Z,2.40
2018-07-10T09:00:31.235Z,2.50
2018-07-10T09:01:30.335Z,2.40
2018-07-10T09:03:31.331Z,2.70
2018-07-10T09:04:30.865Z,2.40
2018-07-10T09:06:26.882Z,2.60
2018-07-10T09:07:27.246Z,3.00
2018-07-10T09:09:28.190Z,2.50
2018-07-10T09:10:27.195Z,3.50
2018-07-10T09:12:30.175Z,2.80
2018-07-10T09:13:29.204Z,2.60
2018-07-10T09:15:30.127Z,2.60
2018-07-10T09:16:30.133Z,2.40
2018-07-10T09:18:31.104Z,2.80
2018-07-10T09:19:30.090Z,3.00
2018-07-10T09:21:32.527Z,2.40
2018-07-10T09:22:32.632Z,2.60
2018-07-10T09:24:32.592Z,2.40
2018-07-10T09:25:32.496Z,2.70
2018-07-10T09:27:33.235Z,2.70
2018-07-10T09:28:33.246Z,2.30
2018-07-10T09:30:34.190Z,2.40
2018-07-10T09:31:33.708Z,2.30
2018-07-10T09:33:35.710Z,2.60
2018-07-10T09:34:34.850Z,2.30
2018-07-10T09:36:35.926Z,2.10
2018-07-10T09:37:35.520Z,2.20
2018-07-10T09:39:34.943Z,2.00
2018-07-10T09:40:34.486Z,2.20
2018-07-10T09:42:34.676Z,2.20
2018-07-10T09:43:34.558Z,2.20
2018-07-10T09:45:32.079Z,2.30
2018-07-10T09:46:32.011Z,2.40
2018-07-10T09:48:28.989Z,2.10
2018-07-10T09:49:27.946Z,2.10
2018-07-10T09:51:28.420Z,2.10
2018-07-10T09:52:29.395Z,2.30
2018-07-10T09:54:24.385Z,2.10
2018-07-10T09:55:24.386Z,2.10
2018-07-10T09:57:25.337Z,2.00
2018-07-10T09:58:24.817Z,2.00
2018-07-10T10:00:21.826Z,2.10
2018-07-10T10:01:20.936Z,2.10
2018-07-10T10:03:19.058Z,1.60
2018-07-10T10:04:19.045Z,2.10
2018-07-10T10:06:20.500Z,2.00
2018-07-10T10:07:19.514Z,2.20
2018-07-10T10:09:21.462Z,1.80
2018-07-10T10:10:20.422Z,2.30
2018-07-10T10:12:20.895Z,1.90
2018-07-10T10:13:20.421Z,2.10
2018-07-10T10:15:20.324Z,2.10
2018-07-10T10:16:19.335Z,2.10
2018-07-10T10:18:16.311Z,2.00
2018-07-10T10:19:15.339Z,2.30
2018-07-10T10:21:11.810Z,2.30
2018-07-10T10:22:11.275Z,2.10
2018-07-10T10:24:09.210Z,2.80
2018-07-10T10:25:09.210Z,2.10
2018-07-10T10:27:08.186Z,2.30
2018-07-10T10:28:07.697Z,2.30
2018-07-10T10:30:07.638Z,2.00
2018-07-10T10:31:07.630Z,2.00
2018-07-10T10:33:08.569Z,2.70
2018-07-10T10:34:08.060Z,2.10
2018-07-10T10:36:08.547Z,2.30
2018-07-10T10:37:08.487Z,2.20
2018-07-10T10:39:09.459Z,2.20
2018-07-10T10:40:08.985Z,2.30
2018-07-10T10:42:09.511Z,2.30
2018-07-10T10:43:09.474Z,2.50
2018-07-10T10:45:09.933Z,2.20
2018-07-10T10:46:10.454Z,2.20
2018-07-10T10:48:10.409Z,2.20
2018-07-10T10:49:10.397Z,2.10
2018-07-10T10:51:12.827Z,2.30
2018-07-10T10:52:10.915Z,2.70
2018-07-10T10:54:12.320Z,2.60
2018-07-10T10:55:11.824Z,2.60
2018-07-10T10:57:12.325Z,2.30
2018-07-10T10:58:11.769Z,2.80
2018-07-10T11:00:09.921Z,2.30
2018-07-10T11:01:09.889Z,2.30
2018-07-10T11:03:07.858Z,2.30
2018-07-10T11:04:07.864Z,2.80
2018-07-10T11:06:08.847Z,2.50
2018-07-10T11:07:08.333Z,2.40
2018-07-10T11:09:05.747Z,2.50
2018-07-10T11:10:05.247Z,2.10
2018-07-10T11:12:03.253Z,2.30
2018-07-10T11:13:03.231Z,3.10
2018-07-10T11:15:01.188Z,2.50
2018-07-10T11:16:01.168Z,2.40
2018-07-10T11:18:00.649Z,2.40
2018-07-10T11:18:59.351Z,2.40
2018-07-10T11:20:57.290Z,2.60
2018-07-10T11:21:57.251Z,2.30
2018-07-10T11:23:57.759Z,2.90
2018-07-10T11:24:56.813Z,2.60
2018-07-10T11:26:53.712Z,2.20
2018-07-10T11:27:53.186Z,2.40
2018-07-10T11:29:53.096Z,2.40
2018-07-10T11:30:53.633Z,2.40
2018-07-10T11:32:49.087Z,2.70
2018-07-10T11:33:50.109Z,2.50
2018-07-10T11:35:45.586Z,2.50
2018-07-10T11:38:01.510Z,2.60
2018-07-10T11:40:21.112Z,2.70
2018-07-10T11:41:20.969Z,2.90
2018-07-10T11:43:15.998Z,2.30
2018-07-10T11:44:15.952Z,2.30
2018-07-10T11:46:14.063Z,2.90
2018-07-10T11:47:14.098Z,2.60
2018-07-10T11:49:10.050Z,2.40
2018-07-10T11:50:10.012Z,2.30
2018-07-10T11:52:06.541Z,3.00
2018-07-10T11:53:06.350Z,4.00
2018-07-10T11:55:03.680Z,2.50
2018-07-10T11:56:02.162Z,3.00
2018-07-10T11:58:05.493Z,2.50
2018-07-10T11:58:59.522Z,2.80
2018-07-10T12:00:57.484Z,2.60
2018-07-10T12:01:57.477Z,2.70
2018-07-10T12:03:53.453Z,2.50
2018-07-10T12:04:53.441Z,2.60
2018-07-10T12:06:49.906Z,2.50
2018-07-10T12:07:49.368Z,3.00
2018-07-10T12:09:45.398Z,2.90
2018-07-10T12:10:45.837Z,2.80
2018-07-10T12:12:44.275Z,2.70
2018-07-10T12:13:44.273Z,2.80
2018-07-10T12:15:39.472Z,3.10
2018-07-10T12:16:39.964Z,2.70
2018-07-10T12:18:35.371Z,3.10
2018-07-10T12:19:36.356Z,2.60
2018-07-10T12:21:31.465Z,2.90
2018-07-10T12:22:31.337Z,2.60
2018-07-10T12:24:27.859Z,2.80
2018-07-10T12:25:27.317Z,2.60
2018-07-10T12:27:23.287Z,2.70
2018-07-10T12:28:23.295Z,2.80
2018-07-10T12:30:19.250Z,2.60
2018-07-10T12:31:20.237Z,2.80
2018-07-10T12:33:15.167Z,3.30
2018-07-10T12:34:15.171Z,3.20
2018-07-10T12:36:12.178Z,3.70
2018-07-10T12:37:11.152Z,2.80
2018-07-10T12:39:15.131Z,2.90
2018-07-10T12:40:07.084Z,2.60
2018-07-10T12:42:04.573Z,3.00
2018-07-10T12:43:03.908Z,3.70
2018-07-10T12:45:05.637Z,3.30
2018-07-10T12:46:01.361Z,3.20
2018-07-10T12:47:57.176Z,3.00
2018-07-10T12:48:56.669Z,2.90
2018-07-10T12:50:54.178Z,3.50
2018-07-10T12:51:52.609Z,3.60
2018-07-10T12:53:48.547Z,3.60
2018-07-10T12:54:49.083Z,3.40
2018-07-10T12:56:44.511Z,3.10
2018-07-10T12:57:44.526Z,3.20
2018-07-10T12:59:40.476Z,3.10
2018-07-10T13:00:40.465Z,3.20
2018-07-10T13:02:36.389Z,4.00
2018-07-10T13:03:36.428Z,4.30
2018-07-10T13:05:32.410Z,3.60
2018-07-10T13:06:32.368Z,3.90
2018-07-10T13:08:28.351Z,3.60
2018-07-10T13:09:29.316Z,3.80
2018-07-10T13:11:24.287Z,4.40
2018-07-10T13:12:24.270Z,4.10
2018-07-10T13:14:20.243Z,4.90
2018-07-10T13:15:20.230Z,4.60
2018-07-10T13:17:16.182Z,5.70
2018-07-10T13:18:16.209Z,5.20
2018-07-10T13:20:12.095Z,5.80
2018-07-10T13:21:12.105Z,6.00
2018-07-10T13:23:08.067Z,6.40
2018-07-10T13:24:08.065Z,6.30
2018-07-10T13:26:04.528Z,5.90
2018-07-10T13:27:04.037Z,5.90
2018-07-10T13:29:00.937Z,6.40
2018-07-10T13:30:00.937Z,6.40
2018-07-10T13:31:57.404Z,7.20
2018-07-10T13:32:55.907Z,6.50
2018-07-10T13:34:51.877Z,6.10
2018-07-10T13:35:51.933Z,6.60
2018-07-10T13:37:47.791Z,7.40
2018-07-10T13:38:47.800Z,6.50
2018-07-10T13:40:45.922Z,7.00
2018-07-10T13:41:45.924Z,6.80
2018-07-10T13:43:42.416Z,6.80
2018-07-10T13:44:41.918Z,6.50
2018-07-10T13:46:38.855Z,6.80
2018-07-10T13:47:37.876Z,6.80
2018-07-10T13:49:37.308Z,7.10
2018-07-10T13:50:35.810Z,6.90
2018-07-10T13:52:31.779Z,6.60
2018-07-10T13:53:31.786Z,6.00
2018-07-10T13:55:27.821Z,6.70
2018-07-10T13:56:27.787Z,6.40
2018-07-10T13:58:23.743Z,6.80
2018-07-10T13:59:23.746Z,6.70
2018-07-10T14:01:20.215Z,5.60
2018-07-10T14:02:19.721Z,5.00
2018-07-10T14:04:15.759Z,5.10
2018-07-10T14:05:15.679Z,5.00
2018-07-10T14:07:11.653Z,5.10
2018-07-10T14:08:11.662Z,5.50
2018-07-10T14:10:08.103Z,5.60
2018-07-10T14:11:07.583Z,5.30
2018-07-10T14:13:05.695Z,5.40
2018-07-10T14:14:05.400Z,5.60
2018-07-10T14:16:00.288Z,5.70
2018-07-10T14:19:22.794Z,6.00
2018-07-10T14:20:21.630Z,5.70
2018-07-10T14:22:21.717Z,6.20
2018-07-10T14:23:23.587Z,5.50
2018-07-10T14:25:17.232Z,5.60
2018-07-10T14:26:17.221Z,6.10
2018-07-10T14:28:12.742Z,6.10
2018-07-10T14:29:13.158Z,6.00
2018-07-10T14:31:08.642Z,6.40
2018-07-10T14:32:08.626Z,5.80
2018-07-10T14:34:05.598Z,5.30
2018-07-10T14:35:04.571Z,5.50
2018-07-10T14:37:00.565Z,5.80
2018-07-10T14:38:01.043Z,6.30
2018-07-10T14:39:56.502Z,5.10
2018-07-10T14:40:56.465Z,5.90
2018-07-10T14:42:54.440Z,5.30
2018-07-10T14:43:55.424Z,5.20
2018-07-10T14:45:52.614Z,6.20
2018-07-10T14:46:52.576Z,6.70
2018-07-10T14:48:49.049Z,6.60
2018-07-10T14:49:48.580Z,6.70
2018-07-10T14:51:47.037Z,6.10
2018-07-10T14:52:45.994Z,5.50
2018-07-10T14:54:41.313Z,5.80
2018-07-10T14:55:41.796Z,5.70
2018-07-10T14:57:39.272Z,6.30
2018-07-10T14:58:39.254Z,6.00
2018-07-10T15:00:35.215Z,7.80
2018-07-10T15:01:35.219Z,9.00
2018-07-10T15:03:31.208Z,7.60
2018-07-10T15:04:31.205Z,8.60
2018-07-10T15:06:27.122Z,5.90
2018-07-10T15:07:27.114Z,5.70
2018-07-10T15:09:27.603Z,6.20
2018-07-10T15:10:25.180Z,5.60
2018-07-10T15:12:22.157Z,5.70
2018-07-10T15:13:21.181Z,5.60
2018-07-10T15:15:17.726Z,6.00
2018-07-10T15:16:17.117Z,5.70
2018-07-10T15:18:14.062Z,5.80
2018-07-10T15:19:13.049Z,5.40
2018-07-10T15:21:09.945Z,7.00
2018-07-10T15:22:10.510Z,6.20
2018-07-10T15:24:07.013Z,6.40
2018-07-10T15:25:07.019Z,6.20
2018-07-10T15:27:04.445Z,6.20
2018-07-10T15:28:04.003Z,5.90
2018-07-10T15:29:59.482Z,6.60
2018-07-10T15:30:58.946Z,5.60
2018-07-10T15:32:55.903Z,6.00
2018-07-10T15:33:54.923Z,5.90
2018-07-10T15:35:50.881Z,5.70
2018-07-10T15:36:50.887Z,6.10
2018-07-10T15:38:46.866Z,5.70
2018-07-10T15:39:46.868Z,6.20
2018-07-10T15:41:42.827Z,6.50
2018-07-10T15:42:42.836Z,6.90
2018-07-10T15:44:39.834Z,6.40
2018-07-10T15:45:39.830Z,6.40
2018-07-10T15:47:35.770Z,6.10
2018-07-10T15:48:35.799Z,5.50
2018-07-10T15:50:31.778Z,7.40
2018-07-10T15:51:32.758Z,7.40
2018-07-10T15:53:27.265Z,7.30
2018-07-10T15:54:27.751Z,7.90
2018-07-10T15:56:23.528Z,7.50
2018-07-10T15:57:23.023Z,8.20
2018-07-10T15:59:19.026Z,9.50
2018-07-10T16:00:18.960Z,8.40
2018-07-10T16:02:14.926Z,9.40
2018-07-10T16:03:14.939Z,9.70
2018-07-10T16:05:10.903Z,9.20
2018-07-10T16:07:28.991Z,9.50
2018-07-10T16:08:29.008Z,9.80
2018-07-10T16:10:24.993Z,9.20
2018-07-10T16:11:24.965Z,9.90
2018-07-10T16:13:22.497Z,8.70
2018-07-10T16:14:20.926Z,8.90
2018-07-10T16:16:17.434Z,8.50
2018-07-10T16:17:16.887Z,8.90
2018-07-10T16:19:13.346Z,7.30
2018-07-10T16:20:12.831Z,7.10
2018-07-10T16:22:09.782Z,8.30
2018-07-10T16:23:09.794Z,8.40
2018-07-10T16:25:05.795Z,7.00
2018-07-10T16:26:05.797Z,7.70
2018-07-10T16:28:12.455Z,7.30
2018-07-10T16:31:08.928Z,7.50
2018-07-10T16:32:10.024Z,7.70
2018-07-10T16:34:09.929Z,8.20
2018-07-10T16:35:06.848Z,7.50
2018-07-10T16:37:18.162Z,7.50
2018-07-10T16:38:16.469Z,8.30
2018-07-10T16:40:12.957Z,7.60
2018-07-10T16:41:12.413Z,7.70
2018-07-10T16:43:08.393Z,7.50
2018-07-10T16:44:08.365Z,8.20
2018-07-10T16:46:07.357Z,7.90
2018-07-10T16:48:23.566Z,7.80
2018-07-10T16:49:24.160Z,8.70
2018-07-10T16:51:27.169Z,7.50
2018-07-10T16:52:27.133Z,7.40
2018-07-10T16:54:23.110Z,7.50
2018-07-10T16:55:23.095Z,8.90
2018-07-10T16:57:20.055Z,7.90
2018-07-10T16:58:20.068Z,7.90
2018-07-10T17:00:15.004Z,7.20
2018-07-10T17:01:14.994Z,7.30
2018-07-10T17:03:10.994Z,7.20
2018-07-10T17:04:10.955Z,7.30
2018-07-10T17:06:06.892Z,7.70
2018-07-10T17:07:06.880Z,7.70
2018-07-10T17:09:02.862Z,8.80
2018-07-10T17:11:20.337Z,8.40
2018-07-10T17:12:18.807Z,8.00
2018-07-10T17:14:15.283Z,8.70
2018-07-10T17:15:14.832Z,8.90
2018-07-10T17:17:11.240Z,8.80
2018-07-10T17:18:10.697Z,9.00
2018-07-10T17:20:07.496Z,8.60
2018-07-10T17:21:07.516Z,9.30
2018-07-10T17:23:05.474Z,9.60
2018-07-10T17:24:05.473Z,9.40
2018-07-10T17:26:01.437Z,10.80
2018-07-10T17:27:01.417Z,10.90
2018-07-10T17:28:57.354Z,10.30
2018-07-10T17:29:57.359Z,11.40
2018-07-10T17:31:55.679Z,12.30
2018-07-10T17:32:53.840Z,11.80
2018-07-10T17:34:50.247Z,12.50
2018-07-10T17:35:49.396Z,11.90
2018-07-10T17:37:45.360Z,11.00
2018-07-10T17:38:45.379Z,12.00
2018-07-10T17:40:41.809Z,11.30
2018-07-10T17:41:42.834Z,11.70
2018-07-10T17:43:37.232Z,12.10
2018-07-10T17:44:37.737Z,11.60
2018-07-10T17:46:33.685Z,11.20
2018-07-10T17:47:33.180Z,11.20
2018-07-10T17:49:29.624Z,10.70
2018-07-10T17:50:29.126Z,10.50
2018-07-10T17:52:28.107Z,10.80
2018-07-10T17:53:28.129Z,10.60
2018-07-10T17:55:23.259Z,11.10
2018-07-10T17:56:23.741Z,11.00
2018-07-10T17:58:19.701Z,10.90
2018-07-10T17:59:19.165Z,10.20
2018-07-10T18:01:15.136Z,10.40
2018-07-10T18:02:15.120Z,10.10
2018-07-10T18:04:11.557Z,11.10
2018-07-10T18:05:11.065Z,10.40
2018-07-10T18:07:07.035Z,11.70
2018-07-10T18:08:06.996Z,11.20
2018-07-10T18:10:02.966Z,11.20
2018-07-10T18:11:02.969Z,10.80
2018-07-10T18:12:58.899Z,10.90
2018-07-10T18:13:58.921Z,10.40
2018-07-10T18:15:55.885Z,10.50
2018-07-10T18:16:54.886Z,11.00
2018-07-10T18:18:50.873Z,10.70
2018-07-10T18:19:50.881Z,11.20
2018-07-10T18:21:46.882Z,10.20
2018-07-10T18:22:46.948Z,10.80
2018-07-10T18:24:45.283Z,10.80
2018-07-10T18:25:44.768Z,10.80
2018-07-10T18:27:40.744Z,11.00
2018-07-10T18:28:40.733Z,10.20
2018-07-10T18:30:38.205Z,10.00
2018-07-10T18:31:36.686Z,10.40
2018-07-10T18:33:32.630Z,9.70
2018-07-10T18:34:32.658Z,10.30
2018-07-10T18:36:29.643Z,11.20
2018-07-10T18:37:28.579Z,11.50
2018-07-10T18:39:25.049Z,11.10
2018-07-10T18:40:24.513Z,11.70
2018-07-10T18:42:20.602Z,11.50
2018-07-10T18:43:20.983Z,11.70
2018-07-10T18:45:16.428Z,11.10
2018-07-10T18:46:16.427Z,10.60
2018-07-10T18:48:12.393Z,10.60
2018-07-10T18:49:12.378Z,9.90
2018-07-10T18:51:09.801Z,10.30
2018-07-10T18:52:08.829Z,10.50
2018-07-10T18:54:04.338Z,11.10
2018-07-10T18:55:04.796Z,10.20
2018-07-10T18:57:00.748Z,10.20
2018-07-10T18:58:00.198Z,10.30
2018-07-10T18:59:56.660Z,10.20
2018-07-10T19:00:56.144Z,9.50
2018-07-10T19:02:52.150Z,9.90
2018-07-10T19:03:53.126Z,10.60
2018-07-10T19:05:48.089Z,10.40
2018-07-10T19:06:48.088Z,10.90
2018-07-10T19:08:44.020Z,10.20
2018-07-10T19:09:44.056Z,10.40
2018-07-10T19:11:40.957Z,10.30
2018-07-10T19:12:40.925Z,10.20
2018-07-10T19:14:36.932Z,10.00
2018-07-10T19:15:35.950Z,10.70
2018-07-10T19:17:31.885Z,11.20
2018-07-10T19:18:31.891Z,10.70
2018-07-10T19:20:27.869Z,10.20
2018-07-10T19:21:27.849Z,9.60
2018-07-10T19:23:23.827Z,10.90
2018-07-10T19:24:23.788Z,10.80
2018-07-10T19:26:19.711Z,10.50
2018-07-10T19:27:20.239Z,9.90
2018-07-10T19:29:16.178Z,10.20
2018-07-10T19:30:15.712Z,9.70
2018-07-10T19:32:11.597Z,10.00
2018-07-10T19:33:11.631Z,10.40
2018-07-10T19:35:07.568Z,9.40
2018-07-10T19:36:07.542Z,9.60
2018-07-10T19:38:04.047Z,10.00
2018-07-10T19:39:04.509Z,10.00
2018-07-10T19:40:59.499Z,9.60
2018-07-10T19:41:59.999Z,10.00
2018-07-10T19:43:55.423Z,9.30